<?xml version="1.0" encoding="UTF-8" standalone="no" ?>
<gpx xmlns="http://www.topografix.com/GPX/1/1" xmlns:xsi="http://www.w3.org/2001/XMLSchema-instance" xsi:schemaLocation="http://www.topografix.com/GPX/1/1 http://www.topografix.com/GPX/1/1/gpx.xsd" version="1.1" creator="VisuGPX - https://www.visugpx.com">
  <metadata>
    <name>Course à pied dans l'après-midi</name>
  </metadata>
  <trk>
    <name><![CDATA[Course à pied dans l'après-midi_1]]></name>
    <trkseg>
      <trkpt lat="48.71139" lon="7.16267">
        <ele>317.2</ele>
        <time>2023-11-02T16:47:01Z</time>
      </trkpt>
      <trkpt lat="48.7114" lon="7.16257">
        <ele>317.4</ele>
        <time>2023-11-02T16:47:03Z</time>
      </trkpt>
      <trkpt lat="48.71136" lon="7.16252">
        <ele>317.5</ele>
        <time>2023-11-02T16:47:05Z</time>
      </trkpt>
      <trkpt lat="48.71121" lon="7.16236">
        <ele>317.9</ele>
        <time>2023-11-02T16:47:14Z</time>
      </trkpt>
      <trkpt lat="48.71105" lon="7.16217">
        <ele>318.1</ele>
        <time>2023-11-02T16:47:20Z</time>
      </trkpt>
      <trkpt lat="48.71089" lon="7.16198">
        <ele>318.3</ele>
        <time>2023-11-02T16:47:29Z</time>
      </trkpt>
      <trkpt lat="48.71075" lon="7.16179">
        <ele>318.4</ele>
        <time>2023-11-02T16:47:36Z</time>
      </trkpt>
      <trkpt lat="48.71058" lon="7.16165">
        <ele>318.5</ele>
        <time>2023-11-02T16:47:43Z</time>
      </trkpt>
      <trkpt lat="48.71039" lon="7.16159">
        <ele>318.6</ele>
        <time>2023-11-02T16:47:50Z</time>
      </trkpt>
      <trkpt lat="48.71019" lon="7.16156">
        <ele>318.8</ele>
        <time>2023-11-02T16:47:57Z</time>
      </trkpt>
      <trkpt lat="48.71" lon="7.16152">
        <ele>319</ele>
        <time>2023-11-02T16:48:04Z</time>
      </trkpt>
      <trkpt lat="48.70982" lon="7.16148">
        <ele>319.5</ele>
        <time>2023-11-02T16:48:11Z</time>
      </trkpt>
      <trkpt lat="48.70963" lon="7.16143">
        <ele>320.1</ele>
        <time>2023-11-02T16:48:19Z</time>
      </trkpt>
      <trkpt lat="48.70943" lon="7.16139">
        <ele>320.8</ele>
        <time>2023-11-02T16:48:26Z</time>
      </trkpt>
      <trkpt lat="48.70924" lon="7.16133">
        <ele>321.5</ele>
        <time>2023-11-02T16:48:33Z</time>
      </trkpt>
      <trkpt lat="48.70905" lon="7.16127">
        <ele>322.2</ele>
        <time>2023-11-02T16:48:41Z</time>
      </trkpt>
      <trkpt lat="48.70885" lon="7.16124">
        <ele>322.9</ele>
        <time>2023-11-02T16:48:48Z</time>
      </trkpt>
      <trkpt lat="48.70865" lon="7.16121">
        <ele>323.7</ele>
        <time>2023-11-02T16:48:55Z</time>
      </trkpt>
      <trkpt lat="48.70846" lon="7.1612">
        <ele>324.4</ele>
        <time>2023-11-02T16:49:02Z</time>
      </trkpt>
      <trkpt lat="48.70827" lon="7.16123">
        <ele>325.2</ele>
        <time>2023-11-02T16:49:11Z</time>
      </trkpt>
      <trkpt lat="48.70814" lon="7.16142">
        <ele>326.9</ele>
        <time>2023-11-02T16:49:19Z</time>
      </trkpt>
      <trkpt lat="48.70801" lon="7.16163">
        <ele>328.5</ele>
        <time>2023-11-02T16:49:31Z</time>
      </trkpt>
      <trkpt lat="48.70787" lon="7.16185">
        <ele>330.1</ele>
        <time>2023-11-02T16:49:40Z</time>
      </trkpt>
      <trkpt lat="48.70774" lon="7.16207">
        <ele>331.7</ele>
        <time>2023-11-02T16:49:48Z</time>
      </trkpt>
      <trkpt lat="48.70761" lon="7.16229">
        <ele>333.4</ele>
        <time>2023-11-02T16:49:56Z</time>
      </trkpt>
      <trkpt lat="48.70749" lon="7.16251">
        <ele>335.2</ele>
        <time>2023-11-02T16:50:04Z</time>
      </trkpt>
      <trkpt lat="48.70737" lon="7.16271">
        <ele>336.9</ele>
        <time>2023-11-02T16:50:11Z</time>
      </trkpt>
      <trkpt lat="48.70724" lon="7.16295">
        <ele>338.6</ele>
        <time>2023-11-02T16:50:19Z</time>
      </trkpt>
      <trkpt lat="48.70713" lon="7.16317">
        <ele>340</ele>
        <time>2023-11-02T16:50:27Z</time>
      </trkpt>
      <trkpt lat="48.707" lon="7.16339">
        <ele>341.6</ele>
        <time>2023-11-02T16:50:34Z</time>
      </trkpt>
      <trkpt lat="48.70689" lon="7.16362">
        <ele>343.1</ele>
        <time>2023-11-02T16:50:41Z</time>
      </trkpt>
      <trkpt lat="48.70678" lon="7.16385">
        <ele>344.6</ele>
        <time>2023-11-02T16:50:48Z</time>
      </trkpt>
      <trkpt lat="48.70665" lon="7.16409">
        <ele>346.4</ele>
        <time>2023-11-02T16:50:56Z</time>
      </trkpt>
      <trkpt lat="48.70653" lon="7.16433">
        <ele>347.6</ele>
        <time>2023-11-02T16:51:03Z</time>
      </trkpt>
      <trkpt lat="48.7064" lon="7.16456">
        <ele>348.4</ele>
        <time>2023-11-02T16:51:10Z</time>
      </trkpt>
      <trkpt lat="48.70628" lon="7.1648">
        <ele>349.4</ele>
        <time>2023-11-02T16:51:17Z</time>
      </trkpt>
      <trkpt lat="48.70615" lon="7.16503">
        <ele>350.6</ele>
        <time>2023-11-02T16:51:24Z</time>
      </trkpt>
      <trkpt lat="48.70603" lon="7.16524">
        <ele>351.5</ele>
        <time>2023-11-02T16:51:30Z</time>
      </trkpt>
      <trkpt lat="48.70589" lon="7.16545">
        <ele>352.5</ele>
        <time>2023-11-02T16:51:37Z</time>
      </trkpt>
      <trkpt lat="48.70577" lon="7.16566">
        <ele>353.3</ele>
        <time>2023-11-02T16:51:44Z</time>
      </trkpt>
      <trkpt lat="48.70563" lon="7.16588">
        <ele>354.3</ele>
        <time>2023-11-02T16:51:51Z</time>
      </trkpt>
      <trkpt lat="48.70549" lon="7.16609">
        <ele>355.1</ele>
        <time>2023-11-02T16:51:58Z</time>
      </trkpt>
      <trkpt lat="48.70537" lon="7.1663">
        <ele>355.9</ele>
        <time>2023-11-02T16:52:05Z</time>
      </trkpt>
      <trkpt lat="48.70525" lon="7.16652">
        <ele>356.5</ele>
        <time>2023-11-02T16:52:12Z</time>
      </trkpt>
      <trkpt lat="48.70514" lon="7.16675">
        <ele>356.7</ele>
        <time>2023-11-02T16:52:19Z</time>
      </trkpt>
      <trkpt lat="48.70503" lon="7.16698">
        <ele>356.4</ele>
        <time>2023-11-02T16:52:26Z</time>
      </trkpt>
      <trkpt lat="48.7049" lon="7.16721">
        <ele>355.9</ele>
        <time>2023-11-02T16:52:33Z</time>
      </trkpt>
      <trkpt lat="48.70476" lon="7.16742">
        <ele>355.2</ele>
        <time>2023-11-02T16:52:40Z</time>
      </trkpt>
      <trkpt lat="48.70461" lon="7.16762">
        <ele>354.3</ele>
        <time>2023-11-02T16:52:47Z</time>
      </trkpt>
      <trkpt lat="48.70448" lon="7.1678">
        <ele>353.7</ele>
        <time>2023-11-02T16:52:53Z</time>
      </trkpt>
      <trkpt lat="48.70434" lon="7.16801">
        <ele>353.4</ele>
        <time>2023-11-02T16:53:00Z</time>
      </trkpt>
      <trkpt lat="48.70419" lon="7.16823">
        <ele>353.4</ele>
        <time>2023-11-02T16:53:07Z</time>
      </trkpt>
      <trkpt lat="48.70403" lon="7.16841">
        <ele>353.6</ele>
        <time>2023-11-02T16:53:14Z</time>
      </trkpt>
      <trkpt lat="48.70386" lon="7.16854">
        <ele>354</ele>
        <time>2023-11-02T16:53:20Z</time>
      </trkpt>
      <trkpt lat="48.70369" lon="7.16865">
        <ele>354.6</ele>
        <time>2023-11-02T16:53:26Z</time>
      </trkpt>
      <trkpt lat="48.7035" lon="7.16876">
        <ele>355.4</ele>
        <time>2023-11-02T16:53:33Z</time>
      </trkpt>
      <trkpt lat="48.70333" lon="7.16888">
        <ele>356.7</ele>
        <time>2023-11-02T16:53:40Z</time>
      </trkpt>
      <trkpt lat="48.70317" lon="7.169">
        <ele>358.2</ele>
        <time>2023-11-02T16:53:47Z</time>
      </trkpt>
      <trkpt lat="48.70299" lon="7.16912">
        <ele>359.9</ele>
        <time>2023-11-02T16:53:55Z</time>
      </trkpt>
      <trkpt lat="48.70281" lon="7.16924">
        <ele>361.3</ele>
        <time>2023-11-02T16:54:03Z</time>
      </trkpt>
      <trkpt lat="48.70262" lon="7.16937">
        <ele>362.8</ele>
        <time>2023-11-02T16:54:11Z</time>
      </trkpt>
      <trkpt lat="48.70246" lon="7.16949">
        <ele>363.8</ele>
        <time>2023-11-02T16:54:18Z</time>
      </trkpt>
      <trkpt lat="48.70229" lon="7.16961">
        <ele>364.8</ele>
        <time>2023-11-02T16:54:26Z</time>
      </trkpt>
      <trkpt lat="48.70213" lon="7.16975">
        <ele>365.7</ele>
        <time>2023-11-02T16:54:33Z</time>
      </trkpt>
      <trkpt lat="48.70194" lon="7.16988">
        <ele>366.8</ele>
        <time>2023-11-02T16:54:40Z</time>
      </trkpt>
      <trkpt lat="48.70178" lon="7.17002">
        <ele>368.2</ele>
        <time>2023-11-02T16:54:47Z</time>
      </trkpt>
      <trkpt lat="48.70161" lon="7.17014">
        <ele>369.5</ele>
        <time>2023-11-02T16:54:55Z</time>
      </trkpt>
      <trkpt lat="48.70144" lon="7.17029">
        <ele>371</ele>
        <time>2023-11-02T16:55:04Z</time>
      </trkpt>
      <trkpt lat="48.70135" lon="7.17054">
        <ele>372.6</ele>
        <time>2023-11-02T16:55:11Z</time>
      </trkpt>
      <trkpt lat="48.70122" lon="7.17073">
        <ele>373.8</ele>
        <time>2023-11-02T16:55:17Z</time>
      </trkpt>
      <trkpt lat="48.70106" lon="7.17089">
        <ele>375.3</ele>
        <time>2023-11-02T16:55:24Z</time>
      </trkpt>
      <trkpt lat="48.7009" lon="7.17105">
        <ele>376.8</ele>
        <time>2023-11-02T16:55:31Z</time>
      </trkpt>
      <trkpt lat="48.70074" lon="7.17121">
        <ele>378.3</ele>
        <time>2023-11-02T16:55:39Z</time>
      </trkpt>
      <trkpt lat="48.70058" lon="7.17139">
        <ele>380</ele>
        <time>2023-11-02T16:55:47Z</time>
      </trkpt>
      <trkpt lat="48.70041" lon="7.17155">
        <ele>381.7</ele>
        <time>2023-11-02T16:55:55Z</time>
      </trkpt>
      <trkpt lat="48.70026" lon="7.17172">
        <ele>383.5</ele>
        <time>2023-11-02T16:56:03Z</time>
      </trkpt>
      <trkpt lat="48.7001" lon="7.1719">
        <ele>385.2</ele>
        <time>2023-11-02T16:56:11Z</time>
      </trkpt>
      <trkpt lat="48.69995" lon="7.17207">
        <ele>386.8</ele>
        <time>2023-11-02T16:56:18Z</time>
      </trkpt>
      <trkpt lat="48.69981" lon="7.17226">
        <ele>388.3</ele>
        <time>2023-11-02T16:56:25Z</time>
      </trkpt>
      <trkpt lat="48.69966" lon="7.17244">
        <ele>389.8</ele>
        <time>2023-11-02T16:56:33Z</time>
      </trkpt>
      <trkpt lat="48.69952" lon="7.17264">
        <ele>391</ele>
        <time>2023-11-02T16:56:41Z</time>
      </trkpt>
      <trkpt lat="48.69937" lon="7.17281">
        <ele>392.1</ele>
        <time>2023-11-02T16:56:49Z</time>
      </trkpt>
      <trkpt lat="48.69921" lon="7.17302">
        <ele>393.1</ele>
        <time>2023-11-02T16:56:57Z</time>
      </trkpt>
      <trkpt lat="48.69908" lon="7.17324">
        <ele>394</ele>
        <time>2023-11-02T16:57:04Z</time>
      </trkpt>
      <trkpt lat="48.69896" lon="7.17344">
        <ele>395.1</ele>
        <time>2023-11-02T16:57:11Z</time>
      </trkpt>
      <trkpt lat="48.69882" lon="7.17365">
        <ele>396.4</ele>
        <time>2023-11-02T16:57:18Z</time>
      </trkpt>
      <trkpt lat="48.69864" lon="7.17381">
        <ele>397.9</ele>
        <time>2023-11-02T16:57:26Z</time>
      </trkpt>
      <trkpt lat="48.69851" lon="7.17365">
        <ele>397.7</ele>
        <time>2023-11-02T16:57:33Z</time>
      </trkpt>
      <trkpt lat="48.6984" lon="7.17342">
        <ele>397.6</ele>
        <time>2023-11-02T16:57:40Z</time>
      </trkpt>
      <trkpt lat="48.69824" lon="7.17332">
        <ele>398.8</ele>
        <time>2023-11-02T16:57:47Z</time>
      </trkpt>
      <trkpt lat="48.69806" lon="7.17336">
        <ele>398.8</ele>
        <time>2023-11-02T16:57:56Z</time>
      </trkpt>
      <trkpt lat="48.69788" lon="7.1734">
        <ele>398.8</ele>
        <time>2023-11-02T16:58:09Z</time>
      </trkpt>
      <trkpt lat="48.69769" lon="7.17349">
        <ele>398.9</ele>
        <time>2023-11-02T16:58:18Z</time>
      </trkpt>
      <trkpt lat="48.69753" lon="7.17361">
        <ele>399</ele>
        <time>2023-11-02T16:58:24Z</time>
      </trkpt>
      <trkpt lat="48.69736" lon="7.17373">
        <ele>399</ele>
        <time>2023-11-02T16:58:33Z</time>
      </trkpt>
      <trkpt lat="48.69716" lon="7.17389">
        <ele>399.2</ele>
        <time>2023-11-02T16:58:41Z</time>
      </trkpt>
      <trkpt lat="48.69698" lon="7.17403">
        <ele>399.3</ele>
        <time>2023-11-02T16:58:48Z</time>
      </trkpt>
      <trkpt lat="48.6968" lon="7.17413">
        <ele>399.5</ele>
        <time>2023-11-02T16:58:58Z</time>
      </trkpt>
      <trkpt lat="48.69662" lon="7.17426">
        <ele>399.9</ele>
        <time>2023-11-02T16:59:03Z</time>
      </trkpt>
      <trkpt lat="48.69646" lon="7.17441">
        <ele>400.3</ele>
        <time>2023-11-02T16:59:09Z</time>
      </trkpt>
      <trkpt lat="48.69631" lon="7.17461">
        <ele>400.9</ele>
        <time>2023-11-02T16:59:15Z</time>
      </trkpt>
      <trkpt lat="48.69616" lon="7.17482">
        <ele>401.8</ele>
        <time>2023-11-02T16:59:22Z</time>
      </trkpt>
      <trkpt lat="48.69599" lon="7.175">
        <ele>402.7</ele>
        <time>2023-11-02T16:59:28Z</time>
      </trkpt>
      <trkpt lat="48.69583" lon="7.17514">
        <ele>403.3</ele>
        <time>2023-11-02T16:59:34Z</time>
      </trkpt>
      <trkpt lat="48.69565" lon="7.17531">
        <ele>403.6</ele>
        <time>2023-11-02T16:59:41Z</time>
      </trkpt>
      <trkpt lat="48.69551" lon="7.17548">
        <ele>403.8</ele>
        <time>2023-11-02T16:59:47Z</time>
      </trkpt>
      <trkpt lat="48.69535" lon="7.17564">
        <ele>404</ele>
        <time>2023-11-02T16:59:55Z</time>
      </trkpt>
      <trkpt lat="48.6952" lon="7.17583">
        <ele>403.9</ele>
        <time>2023-11-02T17:00:05Z</time>
      </trkpt>
      <trkpt lat="48.69504" lon="7.17599">
        <ele>403.8</ele>
        <time>2023-11-02T17:00:12Z</time>
      </trkpt>
      <trkpt lat="48.69487" lon="7.17612">
        <ele>403.8</ele>
        <time>2023-11-02T17:00:18Z</time>
      </trkpt>
      <trkpt lat="48.69469" lon="7.17628">
        <ele>403.8</ele>
        <time>2023-11-02T17:00:25Z</time>
      </trkpt>
      <trkpt lat="48.69453" lon="7.17643">
        <ele>404.2</ele>
        <time>2023-11-02T17:00:34Z</time>
      </trkpt>
      <trkpt lat="48.69441" lon="7.17666">
        <ele>404.3</ele>
        <time>2023-11-02T17:00:42Z</time>
      </trkpt>
      <trkpt lat="48.69429" lon="7.1769">
        <ele>404.5</ele>
        <time>2023-11-02T17:00:49Z</time>
      </trkpt>
      <trkpt lat="48.69419" lon="7.17719">
        <ele>404.6</ele>
        <time>2023-11-02T17:00:56Z</time>
      </trkpt>
      <trkpt lat="48.69407" lon="7.17748">
        <ele>404.9</ele>
        <time>2023-11-02T17:01:01Z</time>
      </trkpt>
      <trkpt lat="48.69395" lon="7.17775">
        <ele>405.2</ele>
        <time>2023-11-02T17:01:07Z</time>
      </trkpt>
      <trkpt lat="48.69381" lon="7.17798">
        <ele>405.7</ele>
        <time>2023-11-02T17:01:13Z</time>
      </trkpt>
      <trkpt lat="48.69369" lon="7.17821">
        <ele>406.5</ele>
        <time>2023-11-02T17:01:19Z</time>
      </trkpt>
      <trkpt lat="48.69356" lon="7.17844">
        <ele>407.4</ele>
        <time>2023-11-02T17:01:27Z</time>
      </trkpt>
      <trkpt lat="48.69347" lon="7.17869">
        <ele>408.2</ele>
        <time>2023-11-02T17:01:35Z</time>
      </trkpt>
      <trkpt lat="48.69339" lon="7.17894">
        <ele>409.1</ele>
        <time>2023-11-02T17:01:42Z</time>
      </trkpt>
      <trkpt lat="48.69325" lon="7.17917">
        <ele>410.2</ele>
        <time>2023-11-02T17:01:49Z</time>
      </trkpt>
      <trkpt lat="48.69312" lon="7.17937">
        <ele>411</ele>
        <time>2023-11-02T17:01:59Z</time>
      </trkpt>
      <trkpt lat="48.693" lon="7.17959">
        <ele>411.7</ele>
        <time>2023-11-02T17:02:08Z</time>
      </trkpt>
      <trkpt lat="48.69288" lon="7.17981">
        <ele>412.2</ele>
        <time>2023-11-02T17:02:16Z</time>
      </trkpt>
      <trkpt lat="48.69274" lon="7.18002">
        <ele>412.6</ele>
        <time>2023-11-02T17:02:24Z</time>
      </trkpt>
      <trkpt lat="48.6926" lon="7.18023">
        <ele>412.8</ele>
        <time>2023-11-02T17:02:31Z</time>
      </trkpt>
      <trkpt lat="48.69249" lon="7.18047">
        <ele>413</ele>
        <time>2023-11-02T17:02:36Z</time>
      </trkpt>
      <trkpt lat="48.6924" lon="7.18071">
        <ele>413</ele>
        <time>2023-11-02T17:02:42Z</time>
      </trkpt>
      <trkpt lat="48.69231" lon="7.18096">
        <ele>413.1</ele>
        <time>2023-11-02T17:02:49Z</time>
      </trkpt>
      <trkpt lat="48.69222" lon="7.1812">
        <ele>413</ele>
        <time>2023-11-02T17:02:55Z</time>
      </trkpt>
      <trkpt lat="48.69213" lon="7.18148">
        <ele>412.7</ele>
        <time>2023-11-02T17:03:02Z</time>
      </trkpt>
      <trkpt lat="48.69208" lon="7.18176">
        <ele>412.5</ele>
        <time>2023-11-02T17:03:08Z</time>
      </trkpt>
      <trkpt lat="48.69202" lon="7.18204">
        <ele>412.2</ele>
        <time>2023-11-02T17:03:14Z</time>
      </trkpt>
      <trkpt lat="48.69194" lon="7.18232">
        <ele>411.8</ele>
        <time>2023-11-02T17:03:20Z</time>
      </trkpt>
      <trkpt lat="48.69188" lon="7.18264">
        <ele>411.1</ele>
        <time>2023-11-02T17:03:26Z</time>
      </trkpt>
      <trkpt lat="48.69183" lon="7.18292">
        <ele>410.6</ele>
        <time>2023-11-02T17:03:31Z</time>
      </trkpt>
      <trkpt lat="48.69179" lon="7.18319">
        <ele>411.1</ele>
        <time>2023-11-02T17:03:37Z</time>
      </trkpt>
      <trkpt lat="48.6919" lon="7.1834">
        <ele>409.3</ele>
        <time>2023-11-02T17:03:48Z</time>
      </trkpt>
      <trkpt lat="48.69209" lon="7.18346">
        <ele>406.8</ele>
        <time>2023-11-02T17:03:57Z</time>
      </trkpt>
      <trkpt lat="48.69229" lon="7.1835">
        <ele>402.4</ele>
        <time>2023-11-02T17:04:03Z</time>
      </trkpt>
      <trkpt lat="48.69248" lon="7.18352">
        <ele>399</ele>
        <time>2023-11-02T17:04:08Z</time>
      </trkpt>
      <trkpt lat="48.69268" lon="7.18354">
        <ele>397.8</ele>
        <time>2023-11-02T17:04:14Z</time>
      </trkpt>
      <trkpt lat="48.69289" lon="7.18358">
        <ele>396.6</ele>
        <time>2023-11-02T17:04:21Z</time>
      </trkpt>
      <trkpt lat="48.69309" lon="7.18357">
        <ele>396.4</ele>
        <time>2023-11-02T17:04:28Z</time>
      </trkpt>
      <trkpt lat="48.69327" lon="7.18358">
        <ele>396.6</ele>
        <time>2023-11-02T17:04:36Z</time>
      </trkpt>
      <trkpt lat="48.69347" lon="7.18362">
        <ele>396</ele>
        <time>2023-11-02T17:04:42Z</time>
      </trkpt>
      <trkpt lat="48.69358" lon="7.18364">
        <ele>395.4</ele>
        <time>2023-11-02T17:04:47Z</time>
      </trkpt>
      <trkpt lat="48.6936" lon="7.18366">
        <ele>394.6</ele>
        <time>2023-11-02T17:04:51Z</time>
      </trkpt>
      <trkpt lat="48.6936" lon="7.1837">
        <ele>394.1</ele>
        <time>2023-11-02T17:04:54Z</time>
      </trkpt>
      <trkpt lat="48.6936" lon="7.18371">
        <ele>394.1</ele>
        <time>2023-11-02T17:04:56Z</time>
      </trkpt>
      <trkpt lat="48.6936" lon="7.18373">
        <ele>394</ele>
        <time>2023-11-02T17:05:01Z</time>
      </trkpt>
      <trkpt lat="48.6936" lon="7.18372">
        <ele>393.9</ele>
        <time>2023-11-02T17:05:03Z</time>
      </trkpt>
      <trkpt lat="48.69341" lon="7.18373">
        <ele>394.3</ele>
        <time>2023-11-02T17:05:12Z</time>
      </trkpt>
      <trkpt lat="48.69323" lon="7.18375">
        <ele>394.2</ele>
        <time>2023-11-02T17:05:19Z</time>
      </trkpt>
      <trkpt lat="48.69303" lon="7.1838">
        <ele>393.5</ele>
        <time>2023-11-02T17:05:29Z</time>
      </trkpt>
      <trkpt lat="48.69292" lon="7.18384">
        <ele>393.2</ele>
        <time>2023-11-02T17:05:33Z</time>
      </trkpt>
      <trkpt lat="48.69272" lon="7.18389">
        <ele>393.6</ele>
        <time>2023-11-02T17:05:39Z</time>
      </trkpt>
      <trkpt lat="48.69274" lon="7.18389">
        <ele>393.5</ele>
        <time>2023-11-02T17:05:40Z</time>
      </trkpt>
      <trkpt lat="48.69293" lon="7.18388">
        <ele>392.7</ele>
        <time>2023-11-02T17:05:48Z</time>
      </trkpt>
      <trkpt lat="48.69311" lon="7.18384">
        <ele>392.6</ele>
        <time>2023-11-02T17:05:55Z</time>
      </trkpt>
      <trkpt lat="48.69331" lon="7.18384">
        <ele>392.7</ele>
        <time>2023-11-02T17:06:02Z</time>
      </trkpt>
      <trkpt lat="48.69349" lon="7.18388">
        <ele>392</ele>
        <time>2023-11-02T17:06:09Z</time>
      </trkpt>
      <trkpt lat="48.69352" lon="7.18388">
        <ele>391.8</ele>
        <time>2023-11-02T17:06:10Z</time>
      </trkpt>
      <trkpt lat="48.6935" lon="7.18389">
        <ele>391.9</ele>
        <time>2023-11-02T17:06:13Z</time>
      </trkpt>
      <trkpt lat="48.69348" lon="7.18389">
        <ele>391.8</ele>
        <time>2023-11-02T17:06:14Z</time>
      </trkpt>
      <trkpt lat="48.69329" lon="7.18392">
        <ele>391.4</ele>
        <time>2023-11-02T17:06:22Z</time>
      </trkpt>
      <trkpt lat="48.6931" lon="7.18395">
        <ele>390.8</ele>
        <time>2023-11-02T17:06:31Z</time>
      </trkpt>
      <trkpt lat="48.6929" lon="7.184">
        <ele>391.2</ele>
        <time>2023-11-02T17:06:40Z</time>
      </trkpt>
      <trkpt lat="48.6928" lon="7.18402">
        <ele>391.5</ele>
        <time>2023-11-02T17:06:43Z</time>
      </trkpt>
      <trkpt lat="48.69266" lon="7.18405">
        <ele>391.8</ele>
        <time>2023-11-02T17:06:50Z</time>
      </trkpt>
      <trkpt lat="48.69284" lon="7.18399">
        <ele>391.1</ele>
        <time>2023-11-02T17:07:00Z</time>
      </trkpt>
      <trkpt lat="48.69304" lon="7.18397">
        <ele>390.6</ele>
        <time>2023-11-02T17:07:11Z</time>
      </trkpt>
      <trkpt lat="48.69324" lon="7.18399">
        <ele>389.9</ele>
        <time>2023-11-02T17:07:18Z</time>
      </trkpt>
      <trkpt lat="48.6934" lon="7.18405">
        <ele>389.4</ele>
        <time>2023-11-02T17:07:24Z</time>
      </trkpt>
      <trkpt lat="48.6934" lon="7.18406">
        <ele>389.4</ele>
        <time>2023-11-02T17:07:26Z</time>
      </trkpt>
      <trkpt lat="48.69338" lon="7.18406">
        <ele>389.3</ele>
        <time>2023-11-02T17:07:27Z</time>
      </trkpt>
      <trkpt lat="48.69319" lon="7.1841">
        <ele>388.9</ele>
        <time>2023-11-02T17:07:36Z</time>
      </trkpt>
      <trkpt lat="48.693" lon="7.18413">
        <ele>389.2</ele>
        <time>2023-11-02T17:07:46Z</time>
      </trkpt>
      <trkpt lat="48.69281" lon="7.18414">
        <ele>389.8</ele>
        <time>2023-11-02T17:07:55Z</time>
      </trkpt>
      <trkpt lat="48.69275" lon="7.18414">
        <ele>390.1</ele>
        <time>2023-11-02T17:07:57Z</time>
      </trkpt>
      <trkpt lat="48.6926" lon="7.18414">
        <ele>390.8</ele>
        <time>2023-11-02T17:08:04Z</time>
      </trkpt>
      <trkpt lat="48.69265" lon="7.18411">
        <ele>390.6</ele>
        <time>2023-11-02T17:08:06Z</time>
      </trkpt>
      <trkpt lat="48.69283" lon="7.18405">
        <ele>390</ele>
        <time>2023-11-02T17:08:15Z</time>
      </trkpt>
      <trkpt lat="48.69301" lon="7.18398">
        <ele>389.7</ele>
        <time>2023-11-02T17:08:24Z</time>
      </trkpt>
      <trkpt lat="48.6932" lon="7.18398">
        <ele>389.2</ele>
        <time>2023-11-02T17:08:32Z</time>
      </trkpt>
      <trkpt lat="48.69337" lon="7.18402">
        <ele>388.8</ele>
        <time>2023-11-02T17:08:40Z</time>
      </trkpt>
      <trkpt lat="48.69336" lon="7.18403">
        <ele>388.4</ele>
        <time>2023-11-02T17:08:42Z</time>
      </trkpt>
      <trkpt lat="48.69332" lon="7.18406">
        <ele>388.3</ele>
        <time>2023-11-02T17:08:45Z</time>
      </trkpt>
      <trkpt lat="48.69312" lon="7.18409">
        <ele>388</ele>
        <time>2023-11-02T17:08:53Z</time>
      </trkpt>
      <trkpt lat="48.69294" lon="7.18413">
        <ele>388.4</ele>
        <time>2023-11-02T17:09:02Z</time>
      </trkpt>
      <trkpt lat="48.69275" lon="7.18413">
        <ele>389.2</ele>
        <time>2023-11-02T17:09:10Z</time>
      </trkpt>
      <trkpt lat="48.69269" lon="7.18413">
        <ele>389.4</ele>
        <time>2023-11-02T17:09:12Z</time>
      </trkpt>
      <trkpt lat="48.69258" lon="7.18411">
        <ele>389.9</ele>
        <time>2023-11-02T17:09:18Z</time>
      </trkpt>
      <trkpt lat="48.69276" lon="7.18406">
        <ele>389.3</ele>
        <time>2023-11-02T17:09:26Z</time>
      </trkpt>
      <trkpt lat="48.69295" lon="7.184">
        <ele>388.7</ele>
        <time>2023-11-02T17:09:35Z</time>
      </trkpt>
      <trkpt lat="48.69314" lon="7.18397">
        <ele>388.3</ele>
        <time>2023-11-02T17:09:44Z</time>
      </trkpt>
      <trkpt lat="48.69335" lon="7.18395">
        <ele>388.3</ele>
        <time>2023-11-02T17:09:50Z</time>
      </trkpt>
      <trkpt lat="48.69345" lon="7.18401">
        <ele>387.8</ele>
        <time>2023-11-02T17:09:54Z</time>
      </trkpt>
      <trkpt lat="48.6934" lon="7.18405">
        <ele>387.3</ele>
        <time>2023-11-02T17:09:57Z</time>
      </trkpt>
      <trkpt lat="48.69337" lon="7.18409">
        <ele>386.9</ele>
        <time>2023-11-02T17:09:58Z</time>
      </trkpt>
      <trkpt lat="48.69333" lon="7.1841">
        <ele>386.8</ele>
        <time>2023-11-02T17:10:01Z</time>
      </trkpt>
      <trkpt lat="48.69314" lon="7.18415">
        <ele>386.6</ele>
        <time>2023-11-02T17:10:08Z</time>
      </trkpt>
      <trkpt lat="48.69294" lon="7.18417">
        <ele>387</ele>
        <time>2023-11-02T17:10:18Z</time>
      </trkpt>
      <trkpt lat="48.69275" lon="7.18415">
        <ele>388.1</ele>
        <time>2023-11-02T17:10:25Z</time>
      </trkpt>
      <trkpt lat="48.69266" lon="7.18414">
        <ele>388.5</ele>
        <time>2023-11-02T17:10:28Z</time>
      </trkpt>
      <trkpt lat="48.69255" lon="7.18411">
        <ele>389</ele>
        <time>2023-11-02T17:10:35Z</time>
      </trkpt>
      <trkpt lat="48.69274" lon="7.18408">
        <ele>388.2</ele>
        <time>2023-11-02T17:10:44Z</time>
      </trkpt>
      <trkpt lat="48.69292" lon="7.18405">
        <ele>387.4</ele>
        <time>2023-11-02T17:10:54Z</time>
      </trkpt>
      <trkpt lat="48.69312" lon="7.18401">
        <ele>386.9</ele>
        <time>2023-11-02T17:11:02Z</time>
      </trkpt>
      <trkpt lat="48.69332" lon="7.18401">
        <ele>386.8</ele>
        <time>2023-11-02T17:11:08Z</time>
      </trkpt>
      <trkpt lat="48.69339" lon="7.18405">
        <ele>386.3</ele>
        <time>2023-11-02T17:11:12Z</time>
      </trkpt>
      <trkpt lat="48.69339" lon="7.18405">
        <ele>386.2</ele>
        <time>2023-11-02T17:11:15Z</time>
      </trkpt>
      <trkpt lat="48.69337" lon="7.18406">
        <ele>386.1</ele>
        <time>2023-11-02T17:11:17Z</time>
      </trkpt>
      <trkpt lat="48.69317" lon="7.1841">
        <ele>385.7</ele>
        <time>2023-11-02T17:11:24Z</time>
      </trkpt>
      <trkpt lat="48.69298" lon="7.1841">
        <ele>386.3</ele>
        <time>2023-11-02T17:11:32Z</time>
      </trkpt>
      <trkpt lat="48.69279" lon="7.18411">
        <ele>387.1</ele>
        <time>2023-11-02T17:11:40Z</time>
      </trkpt>
      <trkpt lat="48.69265" lon="7.18409">
        <ele>387.7</ele>
        <time>2023-11-02T17:11:45Z</time>
      </trkpt>
      <trkpt lat="48.69253" lon="7.18408">
        <ele>388.1</ele>
        <time>2023-11-02T17:11:50Z</time>
      </trkpt>
      <trkpt lat="48.6927" lon="7.18404">
        <ele>387.5</ele>
        <time>2023-11-02T17:12:02Z</time>
      </trkpt>
      <trkpt lat="48.69289" lon="7.18398">
        <ele>387</ele>
        <time>2023-11-02T17:12:14Z</time>
      </trkpt>
      <trkpt lat="48.6931" lon="7.18394">
        <ele>386.6</ele>
        <time>2023-11-02T17:12:22Z</time>
      </trkpt>
      <trkpt lat="48.69329" lon="7.18396">
        <ele>386.2</ele>
        <time>2023-11-02T17:12:27Z</time>
      </trkpt>
      <trkpt lat="48.69341" lon="7.184">
        <ele>385.7</ele>
        <time>2023-11-02T17:12:32Z</time>
      </trkpt>
      <trkpt lat="48.69341" lon="7.18401">
        <ele>385.6</ele>
        <time>2023-11-02T17:12:34Z</time>
      </trkpt>
      <trkpt lat="48.69338" lon="7.18402">
        <ele>385.5</ele>
        <time>2023-11-02T17:12:35Z</time>
      </trkpt>
      <trkpt lat="48.69318" lon="7.18405">
        <ele>385</ele>
        <time>2023-11-02T17:12:43Z</time>
      </trkpt>
      <trkpt lat="48.69299" lon="7.18409">
        <ele>385.3</ele>
        <time>2023-11-02T17:12:51Z</time>
      </trkpt>
      <trkpt lat="48.69278" lon="7.18407">
        <ele>386.3</ele>
        <time>2023-11-02T17:12:59Z</time>
      </trkpt>
      <trkpt lat="48.69262" lon="7.18405">
        <ele>386.9</ele>
        <time>2023-11-02T17:13:05Z</time>
      </trkpt>
      <trkpt lat="48.69253" lon="7.18405">
        <ele>387.2</ele>
        <time>2023-11-02T17:13:11Z</time>
      </trkpt>
      <trkpt lat="48.69272" lon="7.18404">
        <ele>386.3</ele>
        <time>2023-11-02T17:13:24Z</time>
      </trkpt>
      <trkpt lat="48.6929" lon="7.18399">
        <ele>385.7</ele>
        <time>2023-11-02T17:13:34Z</time>
      </trkpt>
      <trkpt lat="48.69311" lon="7.18398">
        <ele>385.3</ele>
        <time>2023-11-02T17:13:41Z</time>
      </trkpt>
      <trkpt lat="48.69331" lon="7.18402">
        <ele>384.8</ele>
        <time>2023-11-02T17:13:47Z</time>
      </trkpt>
      <trkpt lat="48.6934" lon="7.18406">
        <ele>384.3</ele>
        <time>2023-11-02T17:13:52Z</time>
      </trkpt>
      <trkpt lat="48.6934" lon="7.18407">
        <ele>384.2</ele>
        <time>2023-11-02T17:13:53Z</time>
      </trkpt>
      <trkpt lat="48.69339" lon="7.18407">
        <ele>384.1</ele>
        <time>2023-11-02T17:13:55Z</time>
      </trkpt>
      <trkpt lat="48.69321" lon="7.18409">
        <ele>383.7</ele>
        <time>2023-11-02T17:14:02Z</time>
      </trkpt>
      <trkpt lat="48.69301" lon="7.18413">
        <ele>383.9</ele>
        <time>2023-11-02T17:14:10Z</time>
      </trkpt>
      <trkpt lat="48.69283" lon="7.18415">
        <ele>384.7</ele>
        <time>2023-11-02T17:14:17Z</time>
      </trkpt>
      <trkpt lat="48.69262" lon="7.18414">
        <ele>385.6</ele>
        <time>2023-11-02T17:14:23Z</time>
      </trkpt>
      <trkpt lat="48.69249" lon="7.18414">
        <ele>386.2</ele>
        <time>2023-11-02T17:14:28Z</time>
      </trkpt>
      <trkpt lat="48.69268" lon="7.18411">
        <ele>385.4</ele>
        <time>2023-11-02T17:14:40Z</time>
      </trkpt>
      <trkpt lat="48.69287" lon="7.18405">
        <ele>384.6</ele>
        <time>2023-11-02T17:14:51Z</time>
      </trkpt>
      <trkpt lat="48.69306" lon="7.18405">
        <ele>383.7</ele>
        <time>2023-11-02T17:15:00Z</time>
      </trkpt>
      <trkpt lat="48.69326" lon="7.18407">
        <ele>383.4</ele>
        <time>2023-11-02T17:15:06Z</time>
      </trkpt>
      <trkpt lat="48.69337" lon="7.18409">
        <ele>382.9</ele>
        <time>2023-11-02T17:15:11Z</time>
      </trkpt>
      <trkpt lat="48.69336" lon="7.18409">
        <ele>382.8</ele>
        <time>2023-11-02T17:15:15Z</time>
      </trkpt>
      <trkpt lat="48.69317" lon="7.18411">
        <ele>382.8</ele>
        <time>2023-11-02T17:15:23Z</time>
      </trkpt>
      <trkpt lat="48.69297" lon="7.18415">
        <ele>383.1</ele>
        <time>2023-11-02T17:15:31Z</time>
      </trkpt>
      <trkpt lat="48.69279" lon="7.18416">
        <ele>383.7</ele>
        <time>2023-11-02T17:15:38Z</time>
      </trkpt>
      <trkpt lat="48.6926" lon="7.18414">
        <ele>384.8</ele>
        <time>2023-11-02T17:15:44Z</time>
      </trkpt>
      <trkpt lat="48.69257" lon="7.18413">
        <ele>384.9</ele>
        <time>2023-11-02T17:15:45Z</time>
      </trkpt>
      <trkpt lat="48.69246" lon="7.1841">
        <ele>385.7</ele>
        <time>2023-11-02T17:15:50Z</time>
      </trkpt>
      <trkpt lat="48.69265" lon="7.18408">
        <ele>384.4</ele>
        <time>2023-11-02T17:16:01Z</time>
      </trkpt>
      <trkpt lat="48.69284" lon="7.18405">
        <ele>383.7</ele>
        <time>2023-11-02T17:16:11Z</time>
      </trkpt>
      <trkpt lat="48.69305" lon="7.18399">
        <ele>383.1</ele>
        <time>2023-11-02T17:16:21Z</time>
      </trkpt>
      <trkpt lat="48.69324" lon="7.184">
        <ele>382.7</ele>
        <time>2023-11-02T17:16:27Z</time>
      </trkpt>
      <trkpt lat="48.69343" lon="7.18408">
        <ele>381.8</ele>
        <time>2023-11-02T17:16:34Z</time>
      </trkpt>
      <trkpt lat="48.69341" lon="7.18408">
        <ele>381.7</ele>
        <time>2023-11-02T17:16:38Z</time>
      </trkpt>
      <trkpt lat="48.69322" lon="7.18413">
        <ele>381.5</ele>
        <time>2023-11-02T17:16:45Z</time>
      </trkpt>
      <trkpt lat="48.69303" lon="7.18413">
        <ele>381.8</ele>
        <time>2023-11-02T17:16:51Z</time>
      </trkpt>
      <trkpt lat="48.69283" lon="7.18415">
        <ele>382.6</ele>
        <time>2023-11-02T17:16:59Z</time>
      </trkpt>
      <trkpt lat="48.69264" lon="7.18411">
        <ele>383.7</ele>
        <time>2023-11-02T17:17:05Z</time>
      </trkpt>
      <trkpt lat="48.69254" lon="7.18411">
        <ele>384.1</ele>
        <time>2023-11-02T17:17:08Z</time>
      </trkpt>
      <trkpt lat="48.69247" lon="7.18414">
        <ele>384.3</ele>
        <time>2023-11-02T17:17:17Z</time>
      </trkpt>
      <trkpt lat="48.69251" lon="7.18413">
        <ele>384</ele>
        <time>2023-11-02T17:17:19Z</time>
      </trkpt>
      <trkpt lat="48.69254" lon="7.1842">
        <ele>383.7</ele>
        <time>2023-11-02T17:17:22Z</time>
      </trkpt>
      <trkpt lat="48.69255" lon="7.18447">
        <ele>383.1</ele>
        <time>2023-11-02T17:17:33Z</time>
      </trkpt>
      <trkpt lat="48.69254" lon="7.18477">
        <ele>383</ele>
        <time>2023-11-02T17:17:44Z</time>
      </trkpt>
      <trkpt lat="48.69254" lon="7.18486">
        <ele>383.1</ele>
        <time>2023-11-02T17:17:47Z</time>
      </trkpt>
      <trkpt lat="48.69255" lon="7.18516">
        <ele>384.4</ele>
        <time>2023-11-02T17:17:58Z</time>
      </trkpt>
      <trkpt lat="48.69254" lon="7.18546">
        <ele>387.5</ele>
        <time>2023-11-02T17:18:08Z</time>
      </trkpt>
      <trkpt lat="48.69253" lon="7.18574">
        <ele>390.8</ele>
        <time>2023-11-02T17:18:17Z</time>
      </trkpt>
      <trkpt lat="48.69257" lon="7.18579">
        <ele>391.2</ele>
        <time>2023-11-02T17:18:18Z</time>
      </trkpt>
      <trkpt lat="48.69266" lon="7.18609">
        <ele>392.5</ele>
        <time>2023-11-02T17:18:28Z</time>
      </trkpt>
      <trkpt lat="48.69276" lon="7.18638">
        <ele>392.2</ele>
        <time>2023-11-02T17:18:36Z</time>
      </trkpt>
      <trkpt lat="48.69276" lon="7.18666">
        <ele>393.2</ele>
        <time>2023-11-02T17:18:43Z</time>
      </trkpt>
      <trkpt lat="48.69283" lon="7.18695">
        <ele>391.6</ele>
        <time>2023-11-02T17:18:51Z</time>
      </trkpt>
      <trkpt lat="48.69291" lon="7.18722">
        <ele>389.6</ele>
        <time>2023-11-02T17:18:58Z</time>
      </trkpt>
      <trkpt lat="48.6929" lon="7.1875">
        <ele>389.3</ele>
        <time>2023-11-02T17:19:05Z</time>
      </trkpt>
      <trkpt lat="48.69293" lon="7.18778">
        <ele>389.6</ele>
        <time>2023-11-02T17:19:12Z</time>
      </trkpt>
      <trkpt lat="48.69295" lon="7.18806">
        <ele>388.5</ele>
        <time>2023-11-02T17:19:18Z</time>
      </trkpt>
      <trkpt lat="48.693" lon="7.18835">
        <ele>387.4</ele>
        <time>2023-11-02T17:19:25Z</time>
      </trkpt>
      <trkpt lat="48.69307" lon="7.18866">
        <ele>386.9</ele>
        <time>2023-11-02T17:19:32Z</time>
      </trkpt>
      <trkpt lat="48.6931" lon="7.18894">
        <ele>386.1</ele>
        <time>2023-11-02T17:19:38Z</time>
      </trkpt>
      <trkpt lat="48.69317" lon="7.18924">
        <ele>385.1</ele>
        <time>2023-11-02T17:19:44Z</time>
      </trkpt>
      <trkpt lat="48.69327" lon="7.18951">
        <ele>383.2</ele>
        <time>2023-11-02T17:19:49Z</time>
      </trkpt>
      <trkpt lat="48.69339" lon="7.18973">
        <ele>379.4</ele>
        <time>2023-11-02T17:19:56Z</time>
      </trkpt>
      <trkpt lat="48.69354" lon="7.18993">
        <ele>373.2</ele>
        <time>2023-11-02T17:20:05Z</time>
      </trkpt>
      <trkpt lat="48.69371" lon="7.18999">
        <ele>367.4</ele>
        <time>2023-11-02T17:20:13Z</time>
      </trkpt>
      <trkpt lat="48.6939" lon="7.18998">
        <ele>360.7</ele>
        <time>2023-11-02T17:20:21Z</time>
      </trkpt>
      <trkpt lat="48.69404" lon="7.18982">
        <ele>358.8</ele>
        <time>2023-11-02T17:20:28Z</time>
      </trkpt>
      <trkpt lat="48.69416" lon="7.1896">
        <ele>358.8</ele>
        <time>2023-11-02T17:20:37Z</time>
      </trkpt>
      <trkpt lat="48.69422" lon="7.18934">
        <ele>359.6</ele>
        <time>2023-11-02T17:20:46Z</time>
      </trkpt>
      <trkpt lat="48.69429" lon="7.18907">
        <ele>359.8</ele>
        <time>2023-11-02T17:20:55Z</time>
      </trkpt>
      <trkpt lat="48.69436" lon="7.18879">
        <ele>361</ele>
        <time>2023-11-02T17:21:04Z</time>
      </trkpt>
      <trkpt lat="48.69442" lon="7.18854">
        <ele>359.1</ele>
        <time>2023-11-02T17:21:12Z</time>
      </trkpt>
      <trkpt lat="48.6944" lon="7.18825">
        <ele>359.7</ele>
        <time>2023-11-02T17:21:20Z</time>
      </trkpt>
      <trkpt lat="48.69439" lon="7.18796">
        <ele>358.5</ele>
        <time>2023-11-02T17:21:27Z</time>
      </trkpt>
      <trkpt lat="48.69434" lon="7.1877">
        <ele>359.3</ele>
        <time>2023-11-02T17:21:33Z</time>
      </trkpt>
      <trkpt lat="48.69433" lon="7.18739">
        <ele>360.2</ele>
        <time>2023-11-02T17:21:42Z</time>
      </trkpt>
      <trkpt lat="48.69436" lon="7.18708">
        <ele>361.3</ele>
        <time>2023-11-02T17:21:49Z</time>
      </trkpt>
      <trkpt lat="48.69431" lon="7.18679">
        <ele>362.5</ele>
        <time>2023-11-02T17:21:54Z</time>
      </trkpt>
      <trkpt lat="48.69422" lon="7.18652">
        <ele>363.6</ele>
        <time>2023-11-02T17:22:00Z</time>
      </trkpt>
      <trkpt lat="48.69413" lon="7.18626">
        <ele>364.7</ele>
        <time>2023-11-02T17:22:06Z</time>
      </trkpt>
      <trkpt lat="48.69404" lon="7.18599">
        <ele>365.8</ele>
        <time>2023-11-02T17:22:14Z</time>
      </trkpt>
      <trkpt lat="48.69391" lon="7.18576">
        <ele>367</ele>
        <time>2023-11-02T17:22:21Z</time>
      </trkpt>
      <trkpt lat="48.69379" lon="7.18552">
        <ele>368.4</ele>
        <time>2023-11-02T17:22:28Z</time>
      </trkpt>
      <trkpt lat="48.69367" lon="7.18527">
        <ele>369.7</ele>
        <time>2023-11-02T17:22:35Z</time>
      </trkpt>
      <trkpt lat="48.69357" lon="7.18502">
        <ele>370.6</ele>
        <time>2023-11-02T17:22:42Z</time>
      </trkpt>
      <trkpt lat="48.69349" lon="7.18474">
        <ele>371.4</ele>
        <time>2023-11-02T17:22:49Z</time>
      </trkpt>
      <trkpt lat="48.69348" lon="7.1845">
        <ele>372.1</ele>
        <time>2023-11-02T17:22:54Z</time>
      </trkpt>
      <trkpt lat="48.69363" lon="7.18428">
        <ele>373.2</ele>
        <time>2023-11-02T17:23:00Z</time>
      </trkpt>
      <trkpt lat="48.69382" lon="7.18419">
        <ele>372.5</ele>
        <time>2023-11-02T17:23:06Z</time>
      </trkpt>
      <trkpt lat="48.694" lon="7.18415">
        <ele>370</ele>
        <time>2023-11-02T17:23:13Z</time>
      </trkpt>
      <trkpt lat="48.69418" lon="7.18418">
        <ele>366.3</ele>
        <time>2023-11-02T17:23:19Z</time>
      </trkpt>
      <trkpt lat="48.69437" lon="7.18423">
        <ele>361.2</ele>
        <time>2023-11-02T17:23:26Z</time>
      </trkpt>
      <trkpt lat="48.69456" lon="7.18425">
        <ele>355.3</ele>
        <time>2023-11-02T17:23:35Z</time>
      </trkpt>
      <trkpt lat="48.6947" lon="7.18404">
        <ele>353.8</ele>
        <time>2023-11-02T17:23:44Z</time>
      </trkpt>
      <trkpt lat="48.69482" lon="7.18382">
        <ele>352.5</ele>
        <time>2023-11-02T17:23:53Z</time>
      </trkpt>
      <trkpt lat="48.69496" lon="7.18362">
        <ele>351.1</ele>
        <time>2023-11-02T17:24:01Z</time>
      </trkpt>
      <trkpt lat="48.6951" lon="7.1834">
        <ele>350.4</ele>
        <time>2023-11-02T17:24:09Z</time>
      </trkpt>
      <trkpt lat="48.69524" lon="7.1832">
        <ele>351.7</ele>
        <time>2023-11-02T17:24:16Z</time>
      </trkpt>
      <trkpt lat="48.69537" lon="7.18301">
        <ele>349.9</ele>
        <time>2023-11-02T17:24:23Z</time>
      </trkpt>
      <trkpt lat="48.6955" lon="7.18281">
        <ele>348.4</ele>
        <time>2023-11-02T17:24:31Z</time>
      </trkpt>
      <trkpt lat="48.69561" lon="7.18258">
        <ele>347.9</ele>
        <time>2023-11-02T17:24:38Z</time>
      </trkpt>
      <trkpt lat="48.69571" lon="7.18233">
        <ele>347.7</ele>
        <time>2023-11-02T17:24:46Z</time>
      </trkpt>
      <trkpt lat="48.6958" lon="7.18209">
        <ele>348.8</ele>
        <time>2023-11-02T17:24:54Z</time>
      </trkpt>
      <trkpt lat="48.69585" lon="7.18183">
        <ele>349.9</ele>
        <time>2023-11-02T17:25:02Z</time>
      </trkpt>
      <trkpt lat="48.69591" lon="7.18157">
        <ele>350.9</ele>
        <time>2023-11-02T17:25:10Z</time>
      </trkpt>
      <trkpt lat="48.696" lon="7.1813">
        <ele>352.2</ele>
        <time>2023-11-02T17:25:18Z</time>
      </trkpt>
      <trkpt lat="48.69611" lon="7.18105">
        <ele>353.4</ele>
        <time>2023-11-02T17:25:26Z</time>
      </trkpt>
      <trkpt lat="48.69619" lon="7.1808">
        <ele>355.1</ele>
        <time>2023-11-02T17:25:34Z</time>
      </trkpt>
      <trkpt lat="48.69632" lon="7.18057">
        <ele>355.1</ele>
        <time>2023-11-02T17:25:43Z</time>
      </trkpt>
      <trkpt lat="48.69651" lon="7.18041">
        <ele>354.4</ele>
        <time>2023-11-02T17:25:49Z</time>
      </trkpt>
      <trkpt lat="48.69666" lon="7.18024">
        <ele>355</ele>
        <time>2023-11-02T17:25:57Z</time>
      </trkpt>
      <trkpt lat="48.6968" lon="7.18004">
        <ele>357.1</ele>
        <time>2023-11-02T17:26:05Z</time>
      </trkpt>
      <trkpt lat="48.69696" lon="7.17986">
        <ele>360.6</ele>
        <time>2023-11-02T17:26:12Z</time>
      </trkpt>
      <trkpt lat="48.69711" lon="7.1797">
        <ele>362.3</ele>
        <time>2023-11-02T17:26:21Z</time>
      </trkpt>
      <trkpt lat="48.69731" lon="7.17954">
        <ele>363.8</ele>
        <time>2023-11-02T17:26:28Z</time>
      </trkpt>
      <trkpt lat="48.69747" lon="7.1794">
        <ele>365.7</ele>
        <time>2023-11-02T17:26:34Z</time>
      </trkpt>
      <trkpt lat="48.6976" lon="7.17919">
        <ele>368.5</ele>
        <time>2023-11-02T17:26:43Z</time>
      </trkpt>
      <trkpt lat="48.69772" lon="7.17896">
        <ele>370.3</ele>
        <time>2023-11-02T17:26:51Z</time>
      </trkpt>
      <trkpt lat="48.69783" lon="7.17876">
        <ele>371.6</ele>
        <time>2023-11-02T17:26:58Z</time>
      </trkpt>
      <trkpt lat="48.698" lon="7.17858">
        <ele>372.2</ele>
        <time>2023-11-02T17:27:06Z</time>
      </trkpt>
      <trkpt lat="48.69813" lon="7.17836">
        <ele>373.2</ele>
        <time>2023-11-02T17:27:14Z</time>
      </trkpt>
      <trkpt lat="48.69822" lon="7.17812">
        <ele>373.9</ele>
        <time>2023-11-02T17:27:21Z</time>
      </trkpt>
      <trkpt lat="48.6983" lon="7.17787">
        <ele>375.4</ele>
        <time>2023-11-02T17:27:28Z</time>
      </trkpt>
      <trkpt lat="48.69841" lon="7.17767">
        <ele>377.3</ele>
        <time>2023-11-02T17:27:39Z</time>
      </trkpt>
      <trkpt lat="48.6986" lon="7.17772">
        <ele>377.7</ele>
        <time>2023-11-02T17:27:48Z</time>
      </trkpt>
      <trkpt lat="48.69878" lon="7.17783">
        <ele>378.9</ele>
        <time>2023-11-02T17:27:57Z</time>
      </trkpt>
      <trkpt lat="48.69897" lon="7.17794">
        <ele>381.1</ele>
        <time>2023-11-02T17:28:08Z</time>
      </trkpt>
      <trkpt lat="48.69901" lon="7.17797">
        <ele>382.3</ele>
        <time>2023-11-02T17:28:12Z</time>
      </trkpt>
      <trkpt lat="48.6992" lon="7.1779">
        <ele>385.7</ele>
        <time>2023-11-02T17:28:20Z</time>
      </trkpt>
      <trkpt lat="48.69937" lon="7.17774">
        <ele>388.2</ele>
        <time>2023-11-02T17:28:30Z</time>
      </trkpt>
      <trkpt lat="48.69953" lon="7.17759">
        <ele>389</ele>
        <time>2023-11-02T17:28:38Z</time>
      </trkpt>
      <trkpt lat="48.69966" lon="7.17735">
        <ele>389.6</ele>
        <time>2023-11-02T17:28:50Z</time>
      </trkpt>
      <trkpt lat="48.69975" lon="7.17712">
        <ele>390.5</ele>
        <time>2023-11-02T17:28:59Z</time>
      </trkpt>
      <trkpt lat="48.69978" lon="7.17686">
        <ele>391.2</ele>
        <time>2023-11-02T17:29:06Z</time>
      </trkpt>
      <trkpt lat="48.69967" lon="7.17661">
        <ele>392.1</ele>
        <time>2023-11-02T17:29:13Z</time>
      </trkpt>
      <trkpt lat="48.69955" lon="7.1764">
        <ele>392.9</ele>
        <time>2023-11-02T17:29:20Z</time>
      </trkpt>
      <trkpt lat="48.69943" lon="7.17617">
        <ele>393.7</ele>
        <time>2023-11-02T17:29:27Z</time>
      </trkpt>
      <trkpt lat="48.69932" lon="7.17591">
        <ele>394.4</ele>
        <time>2023-11-02T17:29:35Z</time>
      </trkpt>
      <trkpt lat="48.69922" lon="7.17567">
        <ele>395</ele>
        <time>2023-11-02T17:29:42Z</time>
      </trkpt>
      <trkpt lat="48.69912" lon="7.17541">
        <ele>395.7</ele>
        <time>2023-11-02T17:29:49Z</time>
      </trkpt>
      <trkpt lat="48.69901" lon="7.17518">
        <ele>396.2</ele>
        <time>2023-11-02T17:29:56Z</time>
      </trkpt>
      <trkpt lat="48.69891" lon="7.17494">
        <ele>396.6</ele>
        <time>2023-11-02T17:30:03Z</time>
      </trkpt>
      <trkpt lat="48.69883" lon="7.17469">
        <ele>397</ele>
        <time>2023-11-02T17:30:10Z</time>
      </trkpt>
      <trkpt lat="48.69874" lon="7.17444">
        <ele>397.5</ele>
        <time>2023-11-02T17:30:17Z</time>
      </trkpt>
      <trkpt lat="48.69862" lon="7.17421">
        <ele>397.9</ele>
        <time>2023-11-02T17:30:24Z</time>
      </trkpt>
      <trkpt lat="48.69863" lon="7.17396">
        <ele>397.9</ele>
        <time>2023-11-02T17:30:31Z</time>
      </trkpt>
      <trkpt lat="48.69876" lon="7.17375">
        <ele>396.9</ele>
        <time>2023-11-02T17:30:37Z</time>
      </trkpt>
      <trkpt lat="48.6989" lon="7.17355">
        <ele>395.7</ele>
        <time>2023-11-02T17:30:43Z</time>
      </trkpt>
      <trkpt lat="48.69903" lon="7.17336">
        <ele>394.5</ele>
        <time>2023-11-02T17:30:49Z</time>
      </trkpt>
      <trkpt lat="48.69917" lon="7.17313">
        <ele>393.5</ele>
        <time>2023-11-02T17:30:56Z</time>
      </trkpt>
      <trkpt lat="48.69932" lon="7.17294">
        <ele>392.5</ele>
        <time>2023-11-02T17:31:03Z</time>
      </trkpt>
      <trkpt lat="48.69946" lon="7.17276">
        <ele>391.5</ele>
        <time>2023-11-02T17:31:09Z</time>
      </trkpt>
      <trkpt lat="48.69961" lon="7.17254">
        <ele>390.4</ele>
        <time>2023-11-02T17:31:16Z</time>
      </trkpt>
      <trkpt lat="48.69977" lon="7.17233">
        <ele>388.9</ele>
        <time>2023-11-02T17:31:23Z</time>
      </trkpt>
      <trkpt lat="48.69992" lon="7.17212">
        <ele>387.2</ele>
        <time>2023-11-02T17:31:29Z</time>
      </trkpt>
      <trkpt lat="48.70008" lon="7.17191">
        <ele>385.4</ele>
        <time>2023-11-02T17:31:35Z</time>
      </trkpt>
      <trkpt lat="48.70025" lon="7.17172">
        <ele>383.5</ele>
        <time>2023-11-02T17:31:41Z</time>
      </trkpt>
      <trkpt lat="48.70042" lon="7.17154">
        <ele>381.6</ele>
        <time>2023-11-02T17:31:47Z</time>
      </trkpt>
      <trkpt lat="48.7006" lon="7.17136">
        <ele>379.7</ele>
        <time>2023-11-02T17:31:53Z</time>
      </trkpt>
      <trkpt lat="48.70077" lon="7.17119">
        <ele>378</ele>
        <time>2023-11-02T17:31:59Z</time>
      </trkpt>
      <trkpt lat="48.70095" lon="7.171">
        <ele>376.3</ele>
        <time>2023-11-02T17:32:05Z</time>
      </trkpt>
      <trkpt lat="48.70112" lon="7.17083">
        <ele>374.7</ele>
        <time>2023-11-02T17:32:11Z</time>
      </trkpt>
      <trkpt lat="48.70128" lon="7.17063">
        <ele>373.1</ele>
        <time>2023-11-02T17:32:17Z</time>
      </trkpt>
      <trkpt lat="48.70136" lon="7.17038">
        <ele>372.5</ele>
        <time>2023-11-02T17:32:23Z</time>
      </trkpt>
      <trkpt lat="48.70152" lon="7.17023">
        <ele>370.9</ele>
        <time>2023-11-02T17:32:28Z</time>
      </trkpt>
      <trkpt lat="48.70168" lon="7.1701">
        <ele>369.4</ele>
        <time>2023-11-02T17:32:33Z</time>
      </trkpt>
      <trkpt lat="48.70185" lon="7.16998">
        <ele>368.1</ele>
        <time>2023-11-02T17:32:38Z</time>
      </trkpt>
      <trkpt lat="48.70203" lon="7.16985">
        <ele>366.7</ele>
        <time>2023-11-02T17:32:43Z</time>
      </trkpt>
      <trkpt lat="48.70221" lon="7.1697">
        <ele>365.5</ele>
        <time>2023-11-02T17:32:49Z</time>
      </trkpt>
      <trkpt lat="48.70239" lon="7.16956">
        <ele>364.5</ele>
        <time>2023-11-02T17:32:55Z</time>
      </trkpt>
      <trkpt lat="48.70257" lon="7.16941">
        <ele>363.3</ele>
        <time>2023-11-02T17:33:01Z</time>
      </trkpt>
      <trkpt lat="48.70276" lon="7.16928">
        <ele>361.9</ele>
        <time>2023-11-02T17:33:07Z</time>
      </trkpt>
      <trkpt lat="48.70295" lon="7.16915">
        <ele>360.4</ele>
        <time>2023-11-02T17:33:13Z</time>
      </trkpt>
      <trkpt lat="48.70315" lon="7.16903">
        <ele>358.6</ele>
        <time>2023-11-02T17:33:19Z</time>
      </trkpt>
      <trkpt lat="48.70333" lon="7.16891">
        <ele>356.9</ele>
        <time>2023-11-02T17:33:24Z</time>
      </trkpt>
      <trkpt lat="48.70352" lon="7.16881">
        <ele>355.5</ele>
        <time>2023-11-02T17:33:29Z</time>
      </trkpt>
      <trkpt lat="48.7037" lon="7.16871">
        <ele>354.6</ele>
        <time>2023-11-02T17:33:34Z</time>
      </trkpt>
      <trkpt lat="48.70389" lon="7.16858">
        <ele>354</ele>
        <time>2023-11-02T17:33:40Z</time>
      </trkpt>
      <trkpt lat="48.70407" lon="7.16842">
        <ele>353.6</ele>
        <time>2023-11-02T17:33:46Z</time>
      </trkpt>
      <trkpt lat="48.70421" lon="7.16822">
        <ele>353.4</ele>
        <time>2023-11-02T17:33:52Z</time>
      </trkpt>
      <trkpt lat="48.70436" lon="7.16802">
        <ele>353.4</ele>
        <time>2023-11-02T17:33:58Z</time>
      </trkpt>
      <trkpt lat="48.7045" lon="7.16781">
        <ele>353.8</ele>
        <time>2023-11-02T17:34:05Z</time>
      </trkpt>
      <trkpt lat="48.70464" lon="7.16761">
        <ele>354.4</ele>
        <time>2023-11-02T17:34:12Z</time>
      </trkpt>
      <trkpt lat="48.70477" lon="7.16742">
        <ele>355.2</ele>
        <time>2023-11-02T17:34:18Z</time>
      </trkpt>
      <trkpt lat="48.70489" lon="7.16722">
        <ele>355.9</ele>
        <time>2023-11-02T17:34:24Z</time>
      </trkpt>
      <trkpt lat="48.70501" lon="7.16701">
        <ele>356.4</ele>
        <time>2023-11-02T17:34:30Z</time>
      </trkpt>
      <trkpt lat="48.70512" lon="7.16678">
        <ele>356.7</ele>
        <time>2023-11-02T17:34:36Z</time>
      </trkpt>
      <trkpt lat="48.70524" lon="7.16655">
        <ele>356.6</ele>
        <time>2023-11-02T17:34:42Z</time>
      </trkpt>
      <trkpt lat="48.70536" lon="7.16634">
        <ele>356</ele>
        <time>2023-11-02T17:34:48Z</time>
      </trkpt>
      <trkpt lat="48.70549" lon="7.16612">
        <ele>355.2</ele>
        <time>2023-11-02T17:34:54Z</time>
      </trkpt>
      <trkpt lat="48.70563" lon="7.16592">
        <ele>354.4</ele>
        <time>2023-11-02T17:35:00Z</time>
      </trkpt>
      <trkpt lat="48.70576" lon="7.16572">
        <ele>353.5</ele>
        <time>2023-11-02T17:35:06Z</time>
      </trkpt>
      <trkpt lat="48.70589" lon="7.16551">
        <ele>352.7</ele>
        <time>2023-11-02T17:35:12Z</time>
      </trkpt>
      <trkpt lat="48.70601" lon="7.1653">
        <ele>351.8</ele>
        <time>2023-11-02T17:35:18Z</time>
      </trkpt>
      <trkpt lat="48.70613" lon="7.16509">
        <ele>350.8</ele>
        <time>2023-11-02T17:35:24Z</time>
      </trkpt>
      <trkpt lat="48.70625" lon="7.16486">
        <ele>349.7</ele>
        <time>2023-11-02T17:35:30Z</time>
      </trkpt>
      <trkpt lat="48.70638" lon="7.16465">
        <ele>348.6</ele>
        <time>2023-11-02T17:35:36Z</time>
      </trkpt>
      <trkpt lat="48.70651" lon="7.16444">
        <ele>347.8</ele>
        <time>2023-11-02T17:35:42Z</time>
      </trkpt>
      <trkpt lat="48.70664" lon="7.16419">
        <ele>346.8</ele>
        <time>2023-11-02T17:35:49Z</time>
      </trkpt>
      <trkpt lat="48.70675" lon="7.16398">
        <ele>345.4</ele>
        <time>2023-11-02T17:35:55Z</time>
      </trkpt>
      <trkpt lat="48.70687" lon="7.16374">
        <ele>343.7</ele>
        <time>2023-11-02T17:36:01Z</time>
      </trkpt>
      <trkpt lat="48.70698" lon="7.16352">
        <ele>342.2</ele>
        <time>2023-11-02T17:36:07Z</time>
      </trkpt>
      <trkpt lat="48.7071" lon="7.1633">
        <ele>340.7</ele>
        <time>2023-11-02T17:36:13Z</time>
      </trkpt>
      <trkpt lat="48.70723" lon="7.16308">
        <ele>339.1</ele>
        <time>2023-11-02T17:36:19Z</time>
      </trkpt>
      <trkpt lat="48.70737" lon="7.16287">
        <ele>337.6</ele>
        <time>2023-11-02T17:36:25Z</time>
      </trkpt>
      <trkpt lat="48.70751" lon="7.16266">
        <ele>335.8</ele>
        <time>2023-11-02T17:36:31Z</time>
      </trkpt>
      <trkpt lat="48.70765" lon="7.16243">
        <ele>333.9</ele>
        <time>2023-11-02T17:36:38Z</time>
      </trkpt>
      <trkpt lat="48.70778" lon="7.16223">
        <ele>332.1</ele>
        <time>2023-11-02T17:36:44Z</time>
      </trkpt>
      <trkpt lat="48.70791" lon="7.16201">
        <ele>330.5</ele>
        <time>2023-11-02T17:36:50Z</time>
      </trkpt>
      <trkpt lat="48.70804" lon="7.16178">
        <ele>329</ele>
        <time>2023-11-02T17:36:56Z</time>
      </trkpt>
      <trkpt lat="48.70818" lon="7.16154">
        <ele>327.3</ele>
        <time>2023-11-02T17:37:02Z</time>
      </trkpt>
      <trkpt lat="48.70833" lon="7.16136">
        <ele>324.9</ele>
        <time>2023-11-02T17:37:07Z</time>
      </trkpt>
      <trkpt lat="48.70851" lon="7.16132">
        <ele>324.1</ele>
        <time>2023-11-02T17:37:12Z</time>
      </trkpt>
      <trkpt lat="48.7087" lon="7.16136">
        <ele>323.4</ele>
        <time>2023-11-02T17:37:17Z</time>
      </trkpt>
      <trkpt lat="48.7089" lon="7.1614">
        <ele>322.7</ele>
        <time>2023-11-02T17:37:23Z</time>
      </trkpt>
      <trkpt lat="48.70908" lon="7.16144">
        <ele>322.1</ele>
        <time>2023-11-02T17:37:28Z</time>
      </trkpt>
      <trkpt lat="48.70928" lon="7.16148">
        <ele>321.3</ele>
        <time>2023-11-02T17:37:34Z</time>
      </trkpt>
      <trkpt lat="48.70948" lon="7.16151">
        <ele>320.6</ele>
        <time>2023-11-02T17:37:40Z</time>
      </trkpt>
      <trkpt lat="48.70966" lon="7.16156">
        <ele>320</ele>
        <time>2023-11-02T17:37:45Z</time>
      </trkpt>
      <trkpt lat="48.70985" lon="7.16162">
        <ele>319.4</ele>
        <time>2023-11-02T17:37:51Z</time>
      </trkpt>
      <trkpt lat="48.71005" lon="7.16168">
        <ele>318.9</ele>
        <time>2023-11-02T17:37:57Z</time>
      </trkpt>
      <trkpt lat="48.71023" lon="7.16173">
        <ele>318.7</ele>
        <time>2023-11-02T17:38:02Z</time>
      </trkpt>
      <trkpt lat="48.71041" lon="7.16178">
        <ele>318.6</ele>
        <time>2023-11-02T17:38:08Z</time>
      </trkpt>
      <trkpt lat="48.71062" lon="7.16187">
        <ele>318.5</ele>
        <time>2023-11-02T17:38:14Z</time>
      </trkpt>
      <trkpt lat="48.71082" lon="7.16199">
        <ele>318.3</ele>
        <time>2023-11-02T17:38:20Z</time>
      </trkpt>
      <trkpt lat="48.71099" lon="7.16217">
        <ele>318.1</ele>
        <time>2023-11-02T17:38:26Z</time>
      </trkpt>
      <trkpt lat="48.71111" lon="7.16238">
        <ele>318</ele>
        <time>2023-11-02T17:38:32Z</time>
      </trkpt>
      <trkpt lat="48.71125" lon="7.1626">
        <ele>317.8</ele>
        <time>2023-11-02T17:38:39Z</time>
      </trkpt>
      <trkpt lat="48.71142" lon="7.16275">
        <ele>317.3</ele>
        <time>2023-11-02T17:38:46Z</time>
      </trkpt>
      <trkpt lat="48.71146" lon="7.16278">
        <ele>317.2</ele>
        <time>2023-11-02T17:38:47Z</time>
      </trkpt>
      <trkpt lat="48.71146" lon="7.16278">
        <ele>317.2</ele>
        <time>2023-11-02T17:38:48Z</time>
      </trkpt>
    </trkseg>
  </trk>
</gpx>